createdAt,value
2022-08-16T00:01:26.595Z,10.70
2022-08-16T00:04:01.951Z,11.50
2022-08-16T00:06:33.197Z,9.80
2022-08-16T00:09:01.277Z,11.40
2022-08-16T00:11:29.159Z,9.40
2022-08-16T00:13:57.373Z,12.20
2022-08-16T00:17:01.327Z,8.70
2022-08-16T00:19:28.208Z,12.50
2022-08-16T00:22:03.037Z,9.80
2022-08-16T00:24:34.861Z,9.70
2022-08-16T00:27:04.956Z,11.10
2022-08-16T00:29:33.362Z,10.30
2022-08-16T00:32:06.588Z,10.50
2022-08-16T00:34:44.457Z,14.90
2022-08-16T00:37:58.553Z,9.50
2022-08-16T00:40:36.913Z,11.00
2022-08-16T00:43:21.594Z,10.00
2022-08-16T00:46:22.405Z,9.90
2022-08-16T00:48:54.208Z,10.50
2022-08-16T00:51:26.122Z,11.30
2022-08-16T00:53:57.766Z,12.60
2022-08-16T00:56:56.355Z,9.90
2022-08-16T00:59:26.019Z,9.70
2022-08-16T01:01:54.909Z,10.00
2022-08-16T01:04:30.081Z,12.20
2022-08-16T01:07:03.780Z,11.40
2022-08-16T01:09:42.769Z,8.40
2022-08-16T01:12:12.038Z,13.80
2022-08-16T01:15:00.154Z,11.10
2022-08-16T01:17:36.954Z,12.10
2022-08-16T01:20:23.592Z,10.00
2022-08-16T01:23:17.112Z,10.80
2022-08-16T01:25:59.886Z,9.80
2022-08-16T01:28:45.515Z,10.30
2022-08-16T01:31:16.571Z,10.20
2022-08-16T01:33:45.702Z,10.40
2022-08-16T01:36:18.744Z,11.40
2022-08-16T01:38:54.186Z,9.80
2022-08-16T01:41:30.631Z,9.70
2022-08-16T01:44:01.665Z,10.70
2022-08-16T01:46:41.154Z,10.70
2022-08-16T01:49:23.433Z,10.30
2022-08-16T01:52:29.326Z,10.30
2022-08-16T01:55:22.182Z,10.80
2022-08-16T01:57:53.730Z,9.90
2022-08-16T02:00:28.818Z,12.60
2022-08-16T02:02:59.796Z,11.50
2022-08-16T02:05:30.575Z,11.40
2022-08-16T02:07:59.415Z,12.40
2022-08-16T02:10:28.029Z,9.80
2022-08-16T02:13:00.800Z,12.10
2022-08-16T02:15:35.596Z,11.80
2022-08-16T02:18:13.777Z,12.50
2022-08-16T02:20:53.760Z,12.90
2022-08-16T02:23:23.202Z,10.70
2022-08-16T02:25:54.015Z,10.60
2022-08-16T02:28:25.349Z,10.80
2022-08-16T02:30:56.523Z,9.80
2022-08-16T02:33:44.315Z,11.40
2022-08-16T02:36:42.244Z,10.70
2022-08-16T02:39:10.647Z,11.70
2022-08-16T02:41:41.945Z,11.40
2022-08-16T02:44:14.031Z,12.00
2022-08-16T02:46:50.414Z,13.10
2022-08-16T02:49:23.090Z,17.20
2022-08-16T02:52:24.891Z,12.80
2022-08-16T02:54:59.089Z,16.00
2022-08-16T02:57:27.697Z,14.40
2022-08-16T02:59:56.337Z,16.70
2022-08-16T03:02:32.073Z,14.80
2022-08-16T03:05:02.397Z,18.20
2022-08-16T03:07:36.973Z,14.30
2022-08-16T03:10:09.799Z,14.00
2022-08-16T03:12:56.457Z,14.80
2022-08-16T03:15:27.853Z,13.10
2022-08-16T03:17:56.734Z,14.70
2022-08-16T03:20:32.237Z,13.70
2022-08-16T03:23:02.175Z,11.60
2022-08-16T03:25:41.019Z,13.20
2022-08-16T03:28:13.212Z,14.90
2022-08-16T03:30:41.145Z,14.70
2022-08-16T03:33:10.929Z,12.50
2022-08-16T03:35:45.995Z,12.60
2022-08-16T03:38:32.627Z,13.40
2022-08-16T03:41:17.136Z,15.20
2022-08-16T03:43:56.246Z,13.80
2022-08-16T03:46:48.374Z,15.60
2022-08-16T03:49:18.054Z,15.40
2022-08-16T03:51:48.180Z,11.80
2022-08-16T03:54:22.510Z,17.50
2022-08-16T03:56:56.906Z,15.70
2022-08-16T03:59:29.397Z,17.60
2022-08-16T04:02:00.754Z,15.30
2022-08-16T04:04:32.839Z,14.00
2022-08-16T04:07:07.784Z,15.20
2022-08-16T04:09:38.994Z,14.20
2022-08-16T04:12:53.705Z,14.90
2022-08-16T04:15:02.358Z,16.00
2022-08-16T04:17:30.897Z,13.30
2022-08-16T04:19:59.778Z,16.30
2022-08-16T04:22:28.259Z,14.20
2022-08-16T04:25:01.103Z,15.70
2022-08-16T04:27:34.628Z,13.80
2022-08-16T04:30:10.977Z,14.70
2022-08-16T04:32:43.906Z,15.30
2022-08-16T04:35:23.263Z,15.80
2022-08-16T04:37:53.971Z,13.20
2022-08-16T04:40:27.468Z,14.30
2022-08-16T04:42:56.061Z,17.00
2022-08-16T04:45:35.825Z,13.50
2022-08-16T04:48:28.263Z,14.00
2022-08-16T04:51:01.180Z,14.00
2022-08-16T04:53:41.519Z,14.20
2022-08-16T04:56:11.155Z,15.00
2022-08-16T04:58:46.062Z,14.80
2022-08-16T05:01:18.048Z,14.50
2022-08-16T05:03:59.991Z,16.00
2022-08-16T05:06:42.146Z,14.50
2022-08-16T05:09:19.096Z,12.20
2022-08-16T05:11:51.850Z,13.50
2022-08-16T05:14:42.146Z,19.30
2022-08-16T05:17:08.104Z,16.10
2022-08-16T05:19:36.752Z,14.20
2022-08-16T05:22:18.301Z,13.20
2022-08-16T05:24:49.488Z,12.70
2022-08-16T05:27:23.499Z,11.60
2022-08-16T05:29:59.365Z,12.50
2022-08-16T05:32:33.005Z,13.10
2022-08-16T05:35:10.939Z,11.70
2022-08-16T05:37:41.967Z,14.60
2022-08-16T05:40:13.909Z,12.30
2022-08-16T05:42:46.095Z,14.00
2022-08-16T05:45:21.462Z,14.80
2022-08-16T05:47:59.837Z,13.90
2022-08-16T05:50:34.507Z,12.30
2022-08-16T05:53:03.271Z,13.20
2022-08-16T05:55:31.380Z,11.40
2022-08-16T05:58:03.683Z,12.20
2022-08-16T06:00:33.093Z,13.70
2022-08-16T06:03:01.271Z,11.20
2022-08-16T06:05:50.223Z,12.60
2022-08-16T06:08:32.306Z,12.50
2022-08-16T06:11:13.358Z,13.10
2022-08-16T06:13:43.434Z,12.20
2022-08-16T06:16:17.995Z,13.90
2022-08-16T06:18:48.138Z,14.20
2022-08-16T06:21:22.642Z,12.10
2022-08-16T06:23:54.174Z,12.40
2022-08-16T06:26:24.158Z,15.40
2022-08-16T06:29:04.959Z,13.60
2022-08-16T06:31:46.744Z,13.70
2022-08-16T06:34:55.442Z,13.70
2022-08-16T06:37:07.504Z,13.30
2022-08-16T06:39:49.203Z,13.00
2022-08-16T06:42:28.094Z,12.60
2022-08-16T06:45:12.029Z,11.40
2022-08-16T06:47:53.396Z,12.20
2022-08-16T06:50:28.594Z,13.50
2022-08-16T06:53:00.560Z,12.10
2022-08-16T06:55:35.095Z,14.50
2022-08-16T06:58:21.674Z,12.50
2022-08-16T07:00:52.093Z,12.30
2022-08-16T07:03:28.006Z,12.10
2022-08-16T07:06:00.790Z,14.50
2022-08-16T07:08:35.566Z,12.70
2022-08-16T07:11:05.419Z,15.30
2022-08-16T07:14:00.373Z,12.30
2022-08-16T07:16:27.639Z,12.60
2022-08-16T07:18:58.696Z,12.70
2022-08-16T07:21:54.341Z,11.00
2022-08-16T07:24:30.428Z,11.90
2022-08-16T07:27:03.044Z,12.80
2022-08-16T07:29:32.122Z,14.10
2022-08-16T07:32:01.300Z,15.00
2022-08-16T07:34:35.213Z,15.90
2022-08-16T07:37:11.079Z,16.20
2022-08-16T07:39:57.337Z,17.80
2022-08-16T07:42:34.869Z,14.30
2022-08-16T07:45:10.366Z,16.80
2022-08-16T07:47:42.348Z,14.40
2022-08-16T07:50:57.921Z,16.40
2022-08-16T07:53:02.505Z,15.00
2022-08-16T07:55:45.437Z,12.20
2022-08-16T07:58:18.465Z,14.80
2022-08-16T08:01:10.657Z,12.70
2022-08-16T08:03:48.849Z,17.80
2022-08-16T08:06:24.952Z,14.30
2022-08-16T08:08:57.143Z,13.40
2022-08-16T08:11:29.854Z,14.20
2022-08-16T08:14:03.919Z,12.60
2022-08-16T08:16:39.545Z,14.70
2022-08-16T08:19:20.191Z,16.10
2022-08-16T08:22:01.116Z,11.80
2022-08-16T08:24:45.239Z,13.40
2022-08-16T08:27:22.419Z,11.20
2022-08-16T08:30:49.447Z,12.00
2022-08-16T08:32:57.255Z,13.50
2022-08-16T08:35:28.515Z,13.90
2022-08-16T08:37:56.934Z,12.90
2022-08-16T08:40:30.042Z,11.40
2022-08-16T08:43:12.119Z,11.40
2022-08-16T08:45:57.616Z,10.40
2022-08-16T08:48:33.744Z,11.90
2022-08-16T08:51:09.529Z,12.50
2022-08-16T08:54:10.406Z,11.00
2022-08-16T08:56:45.300Z,10.90
2022-08-16T08:59:34.703Z,9.80
2022-08-16T09:02:10.032Z,9.80
2022-08-16T09:04:47.821Z,9.50
2022-08-16T09:07:18.577Z,11.00
2022-08-16T09:09:48.563Z,12.60
2022-08-16T09:15:13.625Z,11.20
2022-08-16T09:17:52.287Z,12.70
2022-08-16T09:20:27.664Z,12.50
2022-08-16T09:22:57.230Z,11.40
2022-08-16T09:25:34.414Z,10.90
2022-08-16T09:28:10.424Z,15.70
2022-08-16T09:30:55.743Z,11.60
2022-08-16T09:33:23.534Z,11.80
2022-08-16T09:35:53.877Z,11.40
2022-08-16T09:38:32.466Z,10.60
2022-08-16T09:41:03.830Z,10.50
2022-08-16T09:43:58.807Z,10.70
2022-08-16T09:46:45.064Z,12.50
2022-08-16T09:49:12.087Z,10.90
2022-08-16T09:51:40.412Z,9.90
2022-08-16T09:54:10.736Z,13.50
2022-08-16T09:56:52.208Z,11.80
2022-08-16T09:59:30.682Z,10.00
2022-08-16T10:02:00.882Z,9.80
2022-08-16T10:04:54.474Z,14.50
2022-08-16T10:07:43.971Z,12.30
2022-08-16T10:10:18.810Z,13.50
2022-08-16T10:13:16.564Z,16.60
2022-08-16T10:15:55.142Z,16.80
2022-08-16T10:18:56.319Z,16.00
2022-08-16T10:21:13.774Z,14.90
2022-08-16T10:23:46.669Z,19.90
2022-08-16T10:27:20.623Z,18.00
2022-08-16T10:29:06.179Z,18.70
2022-08-16T10:31:45.485Z,17.90
2022-08-16T10:34:30.801Z,16.80
2022-08-16T10:37:03.708Z,17.80
2022-08-16T10:39:40.673Z,17.80
2022-08-16T10:42:13.166Z,16.70
2022-08-16T10:44:42.283Z,18.50
2022-08-16T10:47:11.669Z,31.50
2022-08-16T10:49:39.658Z,28.90
2022-08-16T10:52:18.452Z,25.30
2022-08-16T10:57:35.383Z,24.10
2022-08-16T11:00:22.320Z,22.30
2022-08-16T11:03:41.872Z,24.40
2022-08-16T11:08:35.798Z,25.00
2022-08-16T11:11:12.867Z,21.70
2022-08-16T11:14:10.963Z,21.20
2022-08-16T11:19:25.851Z,18.30
2022-08-16T11:22:38.597Z,16.30
2022-08-16T11:24:45.468Z,16.00
2022-08-16T11:27:35.364Z,18.20
2022-08-16T11:30:08.992Z,18.30
2022-08-16T11:32:37.831Z,21.40
2022-08-16T11:35:14.674Z,21.90
2022-08-16T11:38:24.055Z,25.20
2022-08-16T11:40:57.355Z,25.70
2022-08-16T11:43:34.976Z,27.20
2022-08-16T11:46:45.161Z,24.90
2022-08-16T11:48:58.190Z,25.30
2022-08-16T11:51:25.987Z,26.60
2022-08-16T11:53:54.546Z,27.20
2022-08-16T11:56:37.848Z,25.60
2022-08-16T11:59:12.826Z,25.40
2022-08-16T12:01:44.167Z,26.90
2022-08-16T12:04:24.450Z,20.80
2022-08-16T12:06:54.609Z,19.10
2022-08-16T12:09:24.878Z,18.30
2022-08-16T12:12:02.913Z,21.90
2022-08-16T12:14:37.550Z,17.60
2022-08-16T12:17:08.480Z,16.30
2022-08-16T12:19:37.283Z,17.40
2022-08-16T12:22:18.984Z,16.20
2022-08-16T12:24:52.285Z,14.60
2022-08-16T12:27:25.959Z,10.40
2022-08-16T12:29:54.959Z,11.50
2022-08-16T12:32:39.566Z,11.00
2022-08-16T12:35:16.084Z,10.40
2022-08-16T12:37:47.291Z,10.40
2022-08-16T12:42:59.123Z,9.00
2022-08-16T12:45:33.729Z,10.50
2022-08-16T12:48:42.183Z,10.80
2022-08-16T12:51:19.681Z,8.00
2022-08-16T12:53:51.715Z,5.10
2022-08-16T12:56:26.054Z,6.60
2022-08-16T12:58:56.713Z,5.60
2022-08-16T13:01:31.354Z,5.30
2022-08-16T13:04:11.866Z,6.60
2022-08-16T13:06:52.067Z,7.50
2022-08-16T13:09:26.410Z,6.80
2022-08-16T13:12:07.483Z,5.90
2022-08-16T13:14:42.983Z,6.50
2022-08-16T13:17:20.568Z,5.20
2022-08-16T13:20:09.774Z,6.30
2022-08-16T13:22:46.356Z,3.90
2022-08-16T13:25:21.131Z,6.80
2022-08-16T13:28:02.280Z,6.10
2022-08-16T13:30:44.156Z,5.00
2022-08-16T13:33:26.148Z,7.60
2022-08-16T13:36:00.895Z,7.40
2022-08-16T13:38:36.454Z,7.70
2022-08-16T13:41:12.437Z,8.60
2022-08-16T13:43:41.808Z,9.10
2022-08-16T13:46:10.041Z,8.70
2022-08-16T13:48:44.709Z,7.00
2022-08-16T13:51:18.472Z,6.90
2022-08-16T13:53:59.163Z,7.50
2022-08-16T13:56:38.161Z,6.70
2022-08-16T13:59:19.668Z,8.90
2022-08-16T14:01:59.786Z,8.60
2022-08-16T14:04:34.388Z,7.30
2022-08-16T14:07:08.945Z,11.10
2022-08-16T14:09:38.013Z,7.90
2022-08-16T14:12:24.241Z,8.60
2022-08-16T14:14:56.403Z,11.00
2022-08-16T14:17:27.857Z,10.00
2022-08-16T14:19:59.608Z,11.30
2022-08-16T14:22:35.702Z,9.70
2022-08-16T14:25:10.133Z,9.40
2022-08-16T14:27:42.131Z,8.50
2022-08-16T14:30:15.469Z,7.90
2022-08-16T14:32:49.606Z,8.90
2022-08-16T14:35:36.632Z,8.00
2022-08-16T14:38:18.174Z,7.10
2022-08-16T14:40:54.852Z,9.50
2022-08-16T14:43:26.025Z,8.00
2022-08-16T14:45:57.995Z,8.80
2022-08-16T14:48:26.749Z,9.50
2022-08-16T14:50:55.695Z,7.40
2022-08-16T14:53:26.446Z,7.70
2022-08-16T14:55:55.532Z,9.00
2022-08-16T14:58:34.467Z,10.00
2022-08-16T15:01:10.237Z,8.30
2022-08-16T15:03:38.934Z,7.70
2022-08-16T15:06:14.579Z,11.50
2022-08-16T15:08:45.190Z,10.60
2022-08-16T15:11:14.185Z,9.10
2022-08-16T15:13:42.118Z,8.10
2022-08-16T15:16:09.903Z,7.60
2022-08-16T15:18:39.312Z,9.10
2022-08-16T15:21:08.537Z,12.10
2022-08-16T15:23:36.943Z,8.70
2022-08-16T15:26:09.095Z,8.30
2022-08-16T15:28:38.504Z,7.80
2022-08-16T15:31:10.540Z,9.30
2022-08-16T15:33:51.039Z,9.00
2022-08-16T15:36:25.907Z,9.00
2022-08-16T15:39:06.900Z,10.50
2022-08-16T15:41:44.278Z,10.80
2022-08-16T15:44:22.117Z,9.00
2022-08-16T15:46:58.669Z,9.50
2022-08-16T15:49:32.924Z,9.00
2022-08-16T15:52:11.161Z,10.80
2022-08-16T15:54:52.295Z,11.90
2022-08-16T15:57:24.233Z,12.40
2022-08-16T15:59:56.342Z,12.50
2022-08-16T16:02:40.694Z,14.00
2022-08-16T16:05:10.195Z,14.40
2022-08-16T16:07:56.141Z,13.00
2022-08-16T16:10:29.292Z,12.80
2022-08-16T16:13:03.732Z,14.30
2022-08-16T16:15:47.182Z,13.60
2022-08-16T16:18:17.651Z,14.40
2022-08-16T16:20:59.361Z,16.00
2022-08-16T16:23:53.980Z,16.40
2022-08-16T16:26:26.838Z,13.20
2022-08-16T16:29:07.403Z,12.60
2022-08-16T16:31:44.188Z,14.00
2022-08-16T16:34:32.350Z,14.50
2022-08-16T16:37:04.278Z,12.80
2022-08-16T16:39:32.761Z,13.40
2022-08-16T16:42:00.706Z,12.90
2022-08-16T16:44:33.541Z,15.10
2022-08-16T16:47:04.226Z,12.50
2022-08-16T16:49:32.972Z,11.60
2022-08-16T16:52:07.069Z,14.60
2022-08-16T16:54:35.783Z,14.70
2022-08-16T16:57:04.204Z,11.40
2022-08-16T16:59:32.255Z,11.50
2022-08-16T17:02:41.844Z,13.20
2022-08-16T17:04:48.887Z,12.50
2022-08-16T17:07:17.580Z,13.10
2022-08-16T17:09:48.544Z,18.70
2022-08-16T17:12:25.143Z,15.40
2022-08-16T17:14:57.345Z,15.10
2022-08-16T17:17:25.272Z,14.10
2022-08-16T17:19:54.177Z,15.70
2022-08-16T17:22:23.460Z,16.20
2022-08-16T17:24:53.213Z,16.00
2022-08-16T17:27:33.019Z,16.80
2022-08-16T17:30:15.709Z,13.80
2022-08-16T17:32:50.707Z,15.50
2022-08-16T17:35:33.693Z,15.20
2022-08-16T17:38:09.438Z,16.30
2022-08-16T17:40:58.522Z,15.90
2022-08-16T17:43:36.107Z,15.50
2022-08-16T17:46:06.966Z,14.80
2022-08-16T17:48:56.104Z,16.20
2022-08-16T17:51:26.107Z,13.50
2022-08-16T17:53:55.075Z,15.50
2022-08-16T17:56:22.867Z,12.80
2022-08-16T17:58:50.614Z,15.40
2022-08-16T18:01:26.770Z,15.00
2022-08-16T18:04:08.833Z,13.90
2022-08-16T18:06:39.848Z,15.30
2022-08-16T18:09:08.684Z,14.20
2022-08-16T18:11:41.352Z,14.80
2022-08-16T18:14:13.159Z,13.60
2022-08-16T18:16:41.639Z,16.70
2022-08-16T18:19:10.693Z,13.50
2022-08-16T18:21:57.545Z,12.70
2022-08-16T18:24:29.332Z,14.50
2022-08-16T18:27:25.339Z,14.50
2022-08-16T18:29:47.239Z,13.30
2022-08-16T18:32:21.976Z,14.20
2022-08-16T18:34:54.796Z,16.10
2022-08-16T18:37:23.981Z,14.70
2022-08-16T18:39:52.014Z,16.60
2022-08-16T18:42:20.940Z,15.20
2022-08-16T18:44:49.142Z,13.80
2022-08-16T18:47:16.943Z,16.60
2022-08-16T18:49:44.990Z,14.40
2022-08-16T18:52:25.631Z,14.30
2022-08-16T18:55:02.982Z,14.10
2022-08-16T18:57:42.704Z,14.90
2022-08-16T19:00:14.679Z,14.40
2022-08-16T19:02:58.348Z,18.20
2022-08-16T19:05:30.835Z,14.00
2022-08-16T19:07:58.931Z,14.70
2022-08-16T19:10:27.096Z,16.20
2022-08-16T19:12:55.375Z,15.00
2022-08-16T19:15:28.874Z,13.70
2022-08-16T19:17:57.138Z,14.40
2022-08-16T19:20:27.413Z,17.50
2022-08-16T19:23:05.185Z,15.00
2022-08-16T19:25:47.063Z,12.90
2022-08-16T19:28:51.734Z,13.90
2022-08-16T19:31:32.745Z,14.80
2022-08-16T19:34:03.874Z,16.10
2022-08-16T19:39:13.627Z,13.50
2022-08-16T19:41:52.115Z,13.40
2022-08-16T19:44:23.233Z,13.60
2022-08-16T19:46:51.414Z,17.50
2022-08-16T19:49:19.404Z,25.70
2022-08-16T19:51:48.079Z,26.10
2022-08-16T19:54:16.474Z,22.10
2022-08-16T19:56:44.314Z,19.10
2022-08-16T19:59:19.454Z,19.70
2022-08-16T20:01:52.427Z,14.70
2022-08-16T20:04:23.593Z,15.80
2022-08-16T20:06:53.859Z,16.50
2022-08-16T20:09:23.380Z,18.90
2022-08-16T20:11:53.637Z,13.90
2022-08-16T20:14:25.378Z,15.90
2022-08-16T20:16:57.413Z,14.00
2022-08-16T20:19:35.239Z,14.70
2022-08-16T20:22:35.594Z,20.00
2022-08-16T20:25:10.527Z,11.20
2022-08-16T20:27:40.379Z,11.70
2022-08-16T20:30:11.873Z,9.20
2022-08-16T20:32:40.726Z,9.20
2022-08-16T20:35:11.819Z,8.20
2022-08-16T20:40:29.679Z,9.20
2022-08-16T20:43:09.738Z,8.80
2022-08-16T20:45:39.983Z,9.70
2022-08-16T20:48:08.100Z,9.10
2022-08-16T20:50:37.431Z,8.20
2022-08-16T20:53:07.027Z,10.70
2022-08-16T20:55:37.765Z,9.70
2022-08-16T20:58:06.132Z,9.80
2022-08-16T21:00:34.069Z,8.00
2022-08-16T21:03:08.700Z,10.30
2022-08-16T21:05:37.115Z,9.40
2022-08-16T21:08:50.569Z,11.40
2022-08-16T21:10:54.423Z,10.40
2022-08-16T21:13:25.344Z,9.90
2022-08-16T21:15:53.397Z,14.30
2022-08-16T21:18:21.168Z,11.30
2022-08-16T21:20:48.984Z,10.10
2022-08-16T21:23:17.503Z,9.70
2022-08-16T21:25:52.749Z,11.50
2022-08-16T21:28:41.430Z,12.60
2022-08-16T21:31:17.229Z,15.00
2022-08-16T21:33:55.383Z,15.40
2022-08-16T21:36:34.956Z,20.10
2022-08-16T21:39:06.367Z,16.80
2022-08-16T21:41:38.385Z,13.70
2022-08-16T21:44:06.457Z,15.40
2022-08-16T21:46:34.472Z,14.30
2022-08-16T21:49:04.587Z,16.80
2022-08-16T21:51:32.411Z,15.60
2022-08-16T21:54:00.285Z,16.80
2022-08-16T21:56:28.979Z,17.20
2022-08-16T21:58:57.032Z,19.50
2022-08-16T22:01:24.981Z,18.80
2022-08-16T22:04:03.660Z,19.30
2022-08-16T22:06:43.265Z,19.70
2022-08-16T22:09:15.695Z,18.10
2022-08-16T22:11:44.902Z,16.80
2022-08-16T22:14:12.887Z,18.40
2022-08-16T22:16:42.201Z,17.10
2022-08-16T22:19:11.647Z,18.30
2022-08-16T22:21:39.596Z,17.90
2022-08-16T22:24:07.881Z,18.80
2022-08-16T22:26:42.302Z,16.60
2022-08-16T22:29:13.839Z,19.20
2022-08-16T22:31:44.375Z,17.00
2022-08-16T22:34:14.024Z,21.30
2022-08-16T22:36:42.596Z,17.20
2022-08-16T22:39:13.385Z,16.00
2022-08-16T22:41:45.343Z,16.40
2022-08-16T22:44:14.484Z,17.00
2022-08-16T22:46:43.053Z,16.70
2022-08-16T22:49:12.366Z,18.00
2022-08-16T22:51:41.224Z,19.10
2022-08-16T22:54:45.888Z,18.80
2022-08-16T22:56:57.694Z,16.70
2022-08-16T22:59:25.543Z,17.60
2022-08-16T23:01:53.597Z,16.10
2022-08-16T23:04:23.987Z,18.30
2022-08-16T23:06:52.248Z,18.40
2022-08-16T23:09:20.928Z,21.10
2022-08-16T23:11:49.056Z,21.00
2022-08-16T23:14:17.484Z,19.40
2022-08-16T23:16:47.297Z,21.70
2022-08-16T23:19:16.847Z,22.70
2022-08-16T23:21:47.162Z,20.10
2022-08-16T23:24:20.354Z,23.00
2022-08-16T23:26:49.323Z,19.80
2022-08-16T23:29:24.732Z,20.10
2022-08-16T23:32:08.807Z,21.00
2022-08-16T23:34:36.748Z,19.20
2022-08-16T23:37:04.610Z,19.50
2022-08-16T23:39:32.835Z,19.30
2022-08-16T23:42:00.770Z,20.00
2022-08-16T23:44:55.176Z,17.40
2022-08-16T23:47:16.423Z,21.40
2022-08-16T23:50:01.223Z,26.90
2022-08-16T23:52:38.441Z,23.50
2022-08-16T23:55:18.291Z,23.70
2022-08-16T23:57:47.513Z,23.60
